Time;durP1;ratioP1;P1;durP2;ratioP2;P2;SDS_P1;SDS_P2;PMS_P1;PMS_P2;Temp;Humidity;BMP_temperature;BMP_pressure;BME280_temperature;BME280_humidity;BME280_pressure;Samples;Min_cycle;Max_cycle;Signal;HPM_P1;HPM_P2
2022/10/16 00:01:27;;;;;;;3.80;1.80;;;17.80;99.90;;;;;;5096687;28;20773;-71
2022/10/16 00:03:54;;;;;;;2.00;1.57;;;17.80;99.90;;;;;;5096440;28;20889;-73
2022/10/16 00:06:21;;;;;;;4.63;1.60;;;17.80;99.90;;;;;;5086472;28;20441;-71
2022/10/16 00:08:47;;;;;;;3.40;2.10;;;17.80;99.90;;;;;;5076258;28;20406;-70
2022/10/16 00:11:16;;;;;;;3.10;1.40;;;17.80;99.90;;;;;;5076251;28;20400;-71
2022/10/16 00:13:43;;;;;;;5.00;1.90;;;17.70;99.90;;;;;;5076239;28;20400;-71
2022/10/16 00:16:10;;;;;;;2.40;1.40;;;17.60;99.90;;;;;;5076644;28;20412;-71
2022/10/16 00:18:37;;;;;;;3.93;1.60;;;17.60;99.90;;;;;;5076301;28;20447;-71
2022/10/16 00:21:11;;;;;;;4.17;1.90;;;17.60;99.90;;;;;;5058029;28;20408;-71
2022/10/16 00:23:37;;;;;;;6.50;2.07;;;17.70;99.90;;;;;;5064218;28;20423;-71
2022/10/16 00:26:12;;;;;;;2.53;1.67;;;17.60;99.90;;;;;;5075863;28;20416;-71
2022/10/16 00:28:38;;;;;;;5.50;2.33;;;17.70;99.90;;;;;;5076121;28;20765;-71
2022/10/16 00:31:09;;;;;;;3.70;1.63;;;17.60;99.90;;;;;;5076145;28;20404;-71
2022/10/16 00:33:37;;;;;;;3.57;2.10;;;17.60;99.90;;;;;;5075965;28;20165;-71
2022/10/16 00:36:04;;;;;;;4.37;1.70;;;17.60;99.90;;;;;;5075626;28;20420;-71
2022/10/16 00:38:30;;;;;;;2.23;1.60;;;17.50;99.90;;;;;;5075461;28;20496;-71
2022/10/16 00:40:56;;;;;;;3.53;1.60;;;17.40;99.90;;;;;;5075726;28;20535;-71
2022/10/16 00:43:41;;;;;;;2.20;1.73;;;17.40;99.90;;;;;;5075711;28;20516;-70
2022/10/16 00:46:21;;;;;;;3.33;1.80;;;17.30;99.90;;;;;;5075488;28;20436;-71
2022/10/16 00:49:10;;;;;;;2.90;2.47;;;17.30;99.90;;;;;;5075766;28;20423;-71
2022/10/16 00:51:46;;;;;;;1.97;1.63;;;17.40;99.90;;;;;;5074677;28;20419;-70
2022/10/16 00:54:15;;;;;;;3.53;2.00;;;17.40;99.90;;;;;;5090148;28;20450;-71
2022/10/16 00:56:41;;;;;;;3.60;2.17;;;17.50;99.90;;;;;;5095558;28;20468;-71
2022/10/16 00:59:16;;;;;;;4.97;1.93;;;17.50;99.90;;;;;;5095556;28;20492;-71
2022/10/16 01:01:42;;;;;;;2.27;1.60;;;17.40;99.90;;;;;;5095976;28;20751;-71
2022/10/16 01:04:07;;;;;;;4.03;1.53;;;17.40;99.90;;;;;;5095323;28;20392;-71
2022/10/16 01:06:57;;;;;;;3.10;1.70;;;17.40;99.90;;;;;;5093655;28;20717;-68
2022/10/16 01:10:07;;;;;;;3.87;1.70;;;17.40;99.90;;;;;;5095683;28;20166;-70
2022/10/16 01:12:44;;;;;;;5.80;2.20;;;17.40;99.90;;;;;;5013287;28;20422;-71
2022/10/16 01:15:26;;;;;;;1.90;1.70;;;17.30;99.90;;;;;;5013505;28;20480;-71
2022/10/16 01:18:42;;;;;;;3.00;1.90;;;17.20;99.90;;;;;;5066643;28;20454;-71
2022/10/16 01:21:11;;;;;;;3.67;1.97;;;17.20;99.90;;;;;;5060236;28;20415;-68
2022/10/16 01:24:30;;;;;;;4.00;1.80;;;17.30;99.90;;;;;;5094797;28;20905;-68
2022/10/16 01:27:12;;;;;;;4.67;1.97;;;17.40;99.90;;;;;;5012828;28;20449;-70
2022/10/16 01:29:45;;;;;;;2.97;2.20;;;17.40;99.90;;;;;;5095529;28;20814;-70
2022/10/16 01:32:18;;;;;;;2.40;2.20;;;17.40;99.90;;;;;;5094993;28;20431;-71
2022/10/16 01:34:59;;;;;;;2.57;2.10;;;17.30;99.90;;;;;;5095124;28;20721;-71
2022/10/16 01:37:36;;;;;;;4.90;1.80;;;17.30;99.90;;;;;;5076215;28;20468;-71
2022/10/16 01:40:07;;;;;;;3.83;1.87;;;17.30;99.90;;;;;;5095680;28;20878;-71
2022/10/16 01:42:37;;;;;;;1.53;1.43;;;17.20;99.90;;;;;;5095377;28;20926;-71
2022/10/16 01:45:06;;;;;;;2.33;1.57;;;17.20;99.90;;;;;;5095895;28;20439;-71
2022/10/16 01:47:34;;;;;;;3.00;1.73;;;17.10;99.90;;;;;;5076952;28;20395;-71
2022/10/16 01:50:04;;;;;;;2.67;1.80;;;17.20;99.90;;;;;;5094447;28;20411;-70
2022/10/16 01:52:33;;;;;;;1.63;1.43;;;17.30;99.90;;;;;;5073262;28;20947;-70
2022/10/16 01:55:01;;;;;;;5.23;1.60;;;17.40;99.90;;;;;;5094508;28;20504;-71
2022/10/16 01:57:29;;;;;;;4.13;1.87;;;17.40;99.90;;;;;;5094439;28;20913;-70
2022/10/16 02:00:00;;;;;;;2.73;2.03;;;17.60;99.90;;;;;;5094644;28;20905;-71
2022/10/16 02:02:28;;;;;;;2.17;1.80;;;17.70;99.90;;;;;;5094922;28;20475;-70
2022/10/16 02:05:04;;;;;;;1.87;1.63;;;17.70;99.90;;;;;;5094296;28;20468;-73
2022/10/16 02:07:30;;;;;;;3.63;1.50;;;17.70;99.90;;;;;;5093256;28;20853;-71
2022/10/16 02:09:55;;;;;;;1.93;1.63;;;17.70;99.90;;;;;;5094476;28;20490;-71
2022/10/16 02:12:32;;;;;;;3.93;1.70;;;17.70;99.90;;;;;;5094143;28;20509;-71
2022/10/16 02:14:57;;;;;;;3.40;2.03;;;17.80;99.90;;;;;;5075895;28;20746;-71
2022/10/16 02:17:23;;;;;;;4.50;1.80;;;17.80;99.90;;;;;;5093891;28;20430;-71
2022/10/16 02:19:52;;;;;;;2.10;1.90;;;17.80;99.90;;;;;;5094492;28;20541;-70
2022/10/16 02:22:26;;;;;;;6.73;1.97;;;17.70;99.90;;;;;;5093516;28;20461;-71
2022/10/16 02:25:19;;;;;;;2.10;1.70;;;17.80;99.90;;;;;;5075816;28;20388;-70
2022/10/16 02:27:56;;;;;;;5.53;2.10;;;17.80;99.90;;;;;;5093921;28;20578;-70
2022/10/16 02:30:28;;;;;;;4.73;1.67;;;17.80;99.90;;;;;;5075767;28;20409;-71
2022/10/16 02:32:56;;;;;;;4.10;1.70;;;17.80;99.90;;;;;;5094143;28;20445;-71
2022/10/16 02:35:23;;;;;;;3.97;1.97;;;17.70;99.90;;;;;;5093933;28;20851;-71
2022/10/16 02:37:50;;;;;;;2.80;1.90;;;17.70;99.90;;;;;;5093093;28;20482;-71
2022/10/16 02:40:17;;;;;;;4.50;2.03;;;17.80;99.90;;;;;;5093607;28;20407;-71
2022/10/16 02:42:43;;;;;;;2.67;1.80;;;17.70;99.90;;;;;;5093837;28;20408;-71
2022/10/16 02:45:10;;;;;;;3.20;1.50;;;17.70;99.90;;;;;;5093384;28;20933;-71
2022/10/16 02:47:35;;;;;;;1.97;1.50;;;17.70;99.90;;;;;;5093869;28;20169;-71
2022/10/16 02:50:01;;;;;;;6.07;1.70;;;17.80;99.90;;;;;;5094366;28;20404;-71
2022/10/16 02:52:26;;;;;;;2.40;1.40;;;17.80;99.90;;;;;;5093113;28;20172;-71
2022/10/16 02:54:52;;;;;;;2.83;1.67;;;17.80;99.90;;;;;;5093918;28;20255;-71
2022/10/16 02:57:18;;;;;;;3.47;2.23;;;17.70;99.90;;;;;;5089854;28;20170;-70
2022/10/16 02:59:44;;;;;;;3.70;1.67;;;17.70;99.90;;;;;;5084423;28;20192;-70
2022/10/16 03:02:10;;;;;;;3.37;2.03;;;17.70;99.90;;;;;;5093355;28;20810;-71
2022/10/16 03:04:36;;;;;;;2.83;1.50;;;17.70;99.90;;;;;;5093309;28;20175;-71
2022/10/16 03:07:01;;;;;;;2.77;2.10;;;17.70;99.90;;;;;;5092021;28;20804;-71
2022/10/16 03:09:27;;;;;;;3.20;1.60;;;17.60;99.90;;;;;;5093247;28;20662;-71
2022/10/16 03:11:53;;;;;;;1.97;1.40;;;17.60;99.90;;;;;;5093251;28;20187;-71
2022/10/16 03:14:18;;;;;;;3.23;1.60;;;17.60;99.90;;;;;;5093479;28;20180;-71
2022/10/16 03:16:44;;;;;;;2.97;1.93;;;17.60;99.90;;;;;;5093402;28;20189;-70
2022/10/16 03:19:09;;;;;;;2.10;1.50;;;17.60;99.90;;;;;;5093052;28;20205;-71
2022/10/16 03:21:35;;;;;;;2.70;1.83;;;17.50;99.90;;;;;;5092620;28;20169;-71
2022/10/16 03:24:00;;;;;;;1.90;1.70;;;17.50;99.90;;;;;;5093341;28;20289;-70
2022/10/16 03:26:26;;;;;;;3.33;1.83;;;17.50;99.90;;;;;;5093087;28;20665;-70
2022/10/16 03:28:51;;;;;;;3.77;2.23;;;17.60;99.90;;;;;;5095588;28;20565;-70
2022/10/16 03:31:17;;;;;;;4.63;1.67;;;17.60;99.90;;;;;;5097253;28;20188;-70
2022/10/16 03:33:42;;;;;;;5.20;2.23;;;17.50;99.90;;;;;;5097205;28;20254;-70
2022/10/16 03:36:08;;;;;;;1.93;1.73;;;17.50;99.90;;;;;;5096847;28;20200;-71
2022/10/16 03:38:34;;;;;;;3.20;1.97;;;17.50;99.90;;;;;;5096814;28;20197;-71
2022/10/16 03:40:59;;;;;;;4.20;2.10;;;17.40;99.90;;;;;;5097666;28;20219;-70
2022/10/16 03:43:25;;;;;;;2.73;1.50;;;17.30;99.90;;;;;;5097128;28;20180;-71
2022/10/16 03:45:51;;;;;;;2.33;1.70;;;17.30;99.90;;;;;;5096874;28;20201;-71
2022/10/16 03:48:17;;;;;;;5.30;1.60;;;17.30;99.90;;;;;;5097503;28;20244;-70
2022/10/16 03:50:43;;;;;;;5.30;2.00;;;17.20;99.90;;;;;;5096184;28;20827;-71
2022/10/16 03:53:09;;;;;;;3.43;1.73;;;17.10;99.90;;;;;;5094494;28;20415;-71
2022/10/16 03:55:35;;;;;;;3.80;1.90;;;17.20;99.90;;;;;;5097216;28;20567;-71
2022/10/16 03:58:00;;;;;;;5.53;2.30;;;17.00;99.90;;;;;;5097259;28;20204;-70
2022/10/16 04:00:26;;;;;;;3.43;1.90;;;17.00;99.90;;;;;;5097442;28;20170;-71
2022/10/16 04:02:52;;;;;;;6.27;1.83;;;17.00;99.90;;;;;;5097826;28;20169;-70
2022/10/16 04:05:17;;;;;;;2.90;2.27;;;17.00;99.90;;;;;;5097279;28;20193;-71
2022/10/16 04:07:43;;;;;;;8.27;2.20;;;17.00;99.90;;;;;;5077270;28;20230;-71
2022/10/16 04:10:09;;;;;;;5.77;1.90;;;17.00;99.90;;;;;;5097206;28;20173;-71
2022/10/16 04:12:34;;;;;;;5.60;2.10;;;17.00;99.90;;;;;;5096869;28;20177;-71
2022/10/16 04:15:00;;;;;;;2.63;1.63;;;17.00;99.90;;;;;;5096478;28;20615;-71
2022/10/16 04:17:25;;;;;;;8.60;2.50;;;17.00;99.90;;;;;;5096299;28;20212;-71
2022/10/16 04:19:51;;;;;;;5.07;1.60;;;17.00;99.90;;;;;;5096316;28;20162;-71
2022/10/16 04:22:16;;;;;;;2.80;1.73;;;17.00;99.90;;;;;;5095899;28;20172;-71
2022/10/16 04:24:42;;;;;;;4.37;1.77;;;17.10;99.90;;;;;;5096192;28;20256;-70
2022/10/16 04:27:08;;;;;;;4.30;1.53;;;17.00;99.90;;;;;;5096287;28;20163;-71
2022/10/16 04:29:33;;;;;;;3.83;1.80;;;17.00;99.90;;;;;;5096437;28;20174;-71
2022/10/16 04:31:59;;;;;;;4.77;1.50;;;16.90;99.90;;;;;;5096425;28;20622;-71
2022/10/16 04:34:24;;;;;;;1.60;1.50;;;17.00;99.90;;;;;;5096395;28;20215;-71
2022/10/16 04:36:50;;;;;;;1.90;1.57;;;17.00;99.90;;;;;;5095353;28;20197;-71
2022/10/16 04:39:16;;;;;;;2.80;1.30;;;17.00;99.90;;;;;;5095151;28;20257;-71
2022/10/16 04:41:42;;;;;;;3.60;1.70;;;17.00;99.90;;;;;;5096037;28;20177;-70
2022/10/16 04:44:08;;;;;;;5.23;1.80;;;17.10;99.90;;;;;;5095860;28;20418;-71
2022/10/16 04:46:33;;;;;;;1.73;1.63;;;17.00;99.90;;;;;;5095695;28;20215;-71
2022/10/16 04:48:59;;;;;;;3.60;1.90;;;17.00;99.90;;;;;;5077689;28;20177;-71
2022/10/16 04:51:25;;;;;;;2.50;1.70;;;17.00;99.90;;;;;;5095866;28;20197;-71
2022/10/16 04:53:51;;;;;;;3.90;1.53;;;17.00;99.90;;;;;;5095510;28;20172;-71
2022/10/16 04:56:17;;;;;;;5.40;1.90;;;17.10;99.90;;;;;;5095660;28;20440;-71
2022/10/16 04:58:42;;;;;;;2.40;1.70;;;17.00;99.90;;;;;;5096045;28;20197;-71
2022/10/16 05:01:08;;;;;;;2.60;1.73;;;17.00;99.90;;;;;;5095695;28;20172;-71
2022/10/16 05:03:33;;;;;;;5.50;1.90;;;17.00;99.90;;;;;;5095604;28;20248;-71
2022/10/16 05:05:59;;;;;;;4.63;2.03;;;17.10;99.90;;;;;;5094420;28;20716;-71
2022/10/16 05:08:24;;;;;;;3.70;1.97;;;17.00;99.90;;;;;;5095093;28;20246;-71
2022/10/16 05:10:50;;;;;;;2.60;1.57;;;17.00;99.90;;;;;;5095429;28;20173;-71
2022/10/16 05:13:16;;;;;;;2.87;2.00;;;17.00;99.90;;;;;;5095420;28;20169;-71
2022/10/16 05:15:41;;;;;;;6.93;2.10;;;16.90;99.90;;;;;;5095306;28;20239;-71
2022/10/16 05:18:08;;;;;;;3.50;2.03;;;16.80;99.90;;;;;;5095471;28;20555;-71
2022/10/16 05:20:34;;;;;;;3.83;2.00;;;16.80;99.90;;;;;;5095202;28;20173;-71
2022/10/16 05:22:59;;;;;;;4.50;2.00;;;16.70;99.90;;;;;;5094672;28;20799;-71
2022/10/16 05:25:26;;;;;;;8.03;1.97;;;16.70;99.90;;;;;;5095093;28;20221;-71
2022/10/16 05:27:51;;;;;;;3.33;2.20;;;16.60;99.90;;;;;;5095106;28;20255;-71
2022/10/16 05:30:18;;;;;;;4.93;1.80;;;16.50;99.90;;;;;;5095348;28;20909;-71
2022/10/16 05:32:48;;;;;;;5.17;2.57;;;16.50;99.90;;;;;;5095026;28;20542;-70
2022/10/16 05:35:14;;;;;;;2.60;2.17;;;16.50;99.90;;;;;;5094905;28;20928;-71
2022/10/16 05:37:40;;;;;;;4.80;2.77;;;16.60;99.90;;;;;;5094307;28;20966;-71
2022/10/16 05:40:06;;;;;;;6.03;4.60;;;16.70;99.90;;;;;;5095085;28;20411;-70
2022/10/16 05:42:32;;;;;;;7.50;3.60;;;16.70;99.90;;;;;;5094800;28;20173;-71
2022/10/16 05:44:57;;;;;;;7.40;3.37;;;16.70;99.90;;;;;;5094529;28;20865;-71
2022/10/16 05:47:23;;;;;;;5.63;3.37;;;16.70;99.90;;;;;;5094940;28;20567;-71
2022/10/16 05:49:48;;;;;;;5.07;3.20;;;16.70;99.90;;;;;;5092335;28;22127;-71
2022/10/16 05:52:14;;;;;;;5.60;2.50;;;16.80;99.90;;;;;;5083941;28;20191;-68
2022/10/16 05:54:39;;;;;;;7.00;3.40;;;16.70;99.90;;;;;;5075226;28;20255;-70
2022/10/16 05:57:05;;;;;;;8.67;3.70;;;16.60;99.90;;;;;;5074160;28;20260;-71
2022/10/16 05:59:31;;;;;;;6.80;3.57;;;16.70;99.90;;;;;;5073900;28;20207;-71
2022/10/16 06:01:57;;;;;;;6.03;3.63;;;16.70;99.90;;;;;;5085222;28;20182;-71
2022/10/16 06:04:23;;;;;;;6.73;3.43;;;16.80;99.90;;;;;;5074049;28;20412;-70
2022/10/16 06:06:48;;;;;;;6.57;4.67;;;16.80;99.90;;;;;;5074152;28;20201;-71
2022/10/16 06:09:14;;;;;;;6.20;3.50;;;16.80;99.90;;;;;;5073942;28;20174;-71
2022/10/16 06:11:40;;;;;;;3.93;2.80;;;16.80;99.90;;;;;;5074506;28;20177;-71
2022/10/16 06:14:08;;;;;;;7.47;5.00;;;16.90;99.90;;;;;;5073860;28;20177;-71
2022/10/16 06:16:36;;;;;;;4.03;2.60;;;16.80;99.90;;;;;;5073722;28;20249;-71
2022/10/16 06:19:04;;;;;;;6.53;4.83;;;16.90;99.90;;;;;;5073734;28;20455;-71
2022/10/16 06:21:29;;;;;;;9.10;5.57;;;16.90;99.90;;;;;;5073251;28;20400;-71
2022/10/16 06:23:56;;;;;;;5.47;3.90;;;16.90;99.90;;;;;;5055860;28;20419;-71
2022/10/16 06:26:24;;;;;;;7.13;5.17;;;17.00;99.90;;;;;;5073719;28;20178;-71
2022/10/16 06:28:50;;;;;;;7.83;5.90;;;17.10;99.90;;;;;;5073846;28;20808;-71
2022/10/16 06:31:16;;;;;;;5.73;4.20;;;17.00;99.90;;;;;;5073612;28;20423;-70
2022/10/16 06:33:42;;;;;;;9.43;3.27;;;17.10;99.90;;;;;;5073499;28;20559;-71
2022/10/16 06:36:15;;;;;;;7.80;3.60;;;17.20;99.90;;;;;;5077775;28;20430;-71
2022/10/16 06:38:41;;;;;;;4.23;3.20;;;17.00;99.90;;;;;;5093697;28;20479;-71
2022/10/16 06:41:07;;;;;;;2.93;2.30;;;17.10;99.90;;;;;;5093744;28;20438;-71
2022/10/16 06:43:37;;;;;;;4.40;2.67;;;17.20;99.90;;;;;;5093703;28;20494;-71
2022/10/16 06:46:04;;;;;;;3.30;2.43;;;17.30;99.90;;;;;;5076111;28;20496;-71
2022/10/16 06:48:30;;;;;;;4.97;3.87;;;17.40;99.90;;;;;;5093645;28;20407;-71
2022/10/16 06:50:57;;;;;;;3.30;3.00;;;17.50;99.90;;;;;;5093317;28;20410;-71
2022/10/16 06:53:23;;;;;;;2.83;2.50;;;17.50;99.90;;;;;;5093266;28;20407;-70
2022/10/16 06:55:48;;;;;;;4.83;3.40;;;17.50;99.90;;;;;;5093396;28;20925;-71
2022/10/16 06:58:14;;;;;;;3.97;2.50;;;17.50;99.90;;;;;;5093376;28;20443;-70
2022/10/16 07:00:39;;;;;;;3.60;1.90;;;17.60;99.90;;;;;;5093403;28;20653;-71
2022/10/16 07:03:05;;;;;;;4.33;3.63;;;17.50;99.90;;;;;;5092903;28;20282;-71
2022/10/16 07:05:30;;;;;;;4.30;3.90;;;17.60;99.90;;;;;;5093296;28;20177;-71
2022/10/16 07:07:56;;;;;;;4.40;3.50;;;17.70;99.90;;;;;;5091878;28;20200;-70
2022/10/16 07:10:23;;;;;;;3.10;2.80;;;17.80;99.90;;;;;;5093792;28;20165;-69
2022/10/16 07:12:49;;;;;;;2.53;2.33;;;17.80;99.90;;;;;;5093479;28;20169;-68
2022/10/16 07:15:15;;;;;;;3.30;2.67;;;17.90;99.90;;;;;;5092973;28;20472;-69
2022/10/16 07:17:41;;;;;;;3.70;2.73;;;18.10;99.90;;;;;;5092984;28;20157;-69
2022/10/16 07:20:07;;;;;;;4.37;3.23;;;18.30;99.90;;;;;;5093424;28;20166;-69
2022/10/16 07:22:32;;;;;;;7.40;5.60;;;18.30;99.90;;;;;;5092535;28;20157;-69
2022/10/16 07:24:58;;;;;;;10.13;5.40;;;18.40;99.90;;;;;;5093276;28;20424;-69
2022/10/16 07:27:24;;;;;;;3.67;3.00;;;18.40;99.90;;;;;;5093016;28;20230;-69
2022/10/16 07:29:49;;;;;;;5.27;4.03;;;18.50;99.90;;;;;;5093238;28;20537;-69
2022/10/16 07:32:15;;;;;;;4.13;3.73;;;18.50;99.90;;;;;;5093674;28;20612;-69
2022/10/16 07:34:41;;;;;;;4.90;3.67;;;18.50;99.90;;;;;;5092902;28;20174;-68
2022/10/16 07:37:07;;;;;;;5.97;4.30;;;18.50;99.90;;;;;;5092788;28;20165;-70
2022/10/16 07:39:33;;;;;;;6.40;3.87;;;18.40;99.90;;;;;;5093053;28;20895;-69
2022/10/16 07:41:59;;;;;;;5.00;3.43;;;18.30;99.90;;;;;;5093150;28;20158;-68
2022/10/16 07:44:24;;;;;;;5.33;4.30;;;18.30;99.90;;;;;;5093663;28;20180;-69
2022/10/16 07:46:50;;;;;;;4.47;3.20;;;18.40;99.90;;;;;;5102203;22;20304;-75
2022/10/16 07:49:15;;;;;;;4.90;3.70;;;18.50;99.90;;;;;;5072965;28;20167;-75
2022/10/16 07:51:41;;;;;;;10.03;4.90;;;18.50;99.90;;;;;;5072871;28;20269;-75
2022/10/16 07:54:09;;;;;;;6.33;4.23;;;18.60;99.90;;;;;;5073504;28;20182;-74
2022/10/16 07:56:34;;;;;;;12.00;3.77;;;18.60;99.90;;;;;;5054684;28;20206;-74
2022/10/16 07:59:00;;;;;;;5.90;3.77;;;18.70;99.90;;;;;;5072874;28;20439;-75
2022/10/16 08:01:25;;;;;;;11.90;7.87;;;18.90;99.90;;;;;;5072400;28;20352;-75
2022/10/16 08:03:51;;;;;;;6.10;4.03;;;18.90;99.90;;;;;;5072730;28;20169;-74
2022/10/16 08:06:19;;;;;;;5.23;3.40;;;19.00;99.90;;;;;;5069357;28;20837;-75
2022/10/16 08:08:45;;;;;;;4.07;3.07;;;19.00;99.90;;;;;;5052457;28;20416;-73
2022/10/16 08:11:10;;;;;;;7.93;3.43;;;19.10;99.90;;;;;;5052862;28;20409;-74
2022/10/16 08:13:36;;;;;;;4.97;3.27;;;19.30;99.90;;;;;;5056101;28;20202;-74
2022/10/16 08:16:07;;;;;;;5.43;3.10;;;19.40;99.90;;;;;;5076602;28;20194;-74
2022/10/16 08:18:43;;;;;;;8.50;3.40;;;19.50;99.90;;;;;;5059183;28;20850;-74
2022/10/16 08:21:16;;;;;;;5.43;1.77;;;19.70;99.90;;;;;;5076410;28;20381;-73
2022/10/16 08:23:43;;;;;;;2.40;1.80;;;19.70;99.90;;;;;;5076494;28;20438;-74
2022/10/16 08:26:09;;;;;;;1.87;1.20;;;19.60;99.90;;;;;;5075005;28;20464;-73
2022/10/16 08:28:36;;;;;;;2.27;1.33;;;19.70;99.90;;;;;;5076467;28;20436;-74
2022/10/16 08:31:13;;;;;;;4.20;1.93;;;19.80;99.90;;;;;;5074973;28;20477;-75
2022/10/16 08:33:40;;;;;;;1.70;1.47;;;19.90;99.90;;;;;;5075969;28;20396;-74
2022/10/16 08:36:06;;;;;;;3.80;2.20;;;19.90;99.90;;;;;;5058415;28;20437;-74
2022/10/16 08:38:33;;;;;;;3.87;1.70;;;20.10;99.90;;;;;;5077345;28;20444;-73
2022/10/16 08:41:17;;;;;;;2.40;1.63;;;20.30;99.90;;;;;;5086407;28;20396;-75
2022/10/16 08:44:20;;;;;;;2.23;1.90;;;20.40;99.90;;;;;;5070756;28;20400;-74
2022/10/16 08:47:01;;;;;;;4.73;1.63;;;20.40;99.90;;;;;;5078310;28;20473;-74
2022/10/16 08:49:29;;;;;;;2.40;1.37;;;20.40;99.90;;;;;;5079861;28;20404;-73
2022/10/16 08:51:57;;;;;;;3.17;1.77;;;20.50;99.90;;;;;;5052077;28;20428;-73
2022/10/16 08:54:40;;;;;;;1.67;1.57;;;20.30;99.90;;;;;;5044807;28;20425;-74
2022/10/16 08:57:28;;;;;;;1.80;1.47;;;20.30;99.90;;;;;;5075504;28;20416;-74
2022/10/16 09:00:00;;;;;;;3.17;1.50;;;20.40;99.90;;;;;;5075678;28;20432;-74
2022/10/16 09:02:31;;;;;;;1.77;1.63;;;20.40;99.90;;;;;;5075315;28;20426;-73
2022/10/16 09:05:14;;;;;;;1.80;1.70;;;20.70;99.90;;;;;;5075585;28;20388;-72
2022/10/16 09:07:43;;;;;;;2.60;1.30;;;20.80;99.90;;;;;;5059226;28;20546;-73
2022/10/16 09:10:37;;;;;;;2.03;1.83;;;20.90;99.90;;;;;;5055564;28;20401;-72
2022/10/16 09:13:12;;;;;;;5.30;1.67;;;21.10;99.90;;;;;;5055733;28;20393;-73
2022/10/16 09:15:40;;;;;;;1.50;1.40;;;21.20;99.90;;;;;;5055455;28;20444;-73
2022/10/16 09:18:45;;;;;;;3.70;1.60;;;21.30;99.90;;;;;;5055474;28;20575;-73
2022/10/16 09:21:28;;;;;;;3.97;1.50;;;21.40;99.90;;;;;;5054365;28;20412;-73
2022/10/16 09:23:59;;;;;;;12.30;1.90;;;21.20;99.90;;;;;;5055255;28;20384;-73
2022/10/16 09:26:25;;;;;;;1.27;1.17;;;21.20;99.90;;;;;;5054705;28;20417;-75
2022/10/16 09:28:53;;;;;;;2.30;1.50;;;21.40;99.90;;;;;;5037418;28;20405;-75
2022/10/16 09:31:21;;;;;;;3.97;1.40;;;21.70;99.90;;;;;;5056477;28;20393;-73
2022/10/16 09:33:58;;;;;;;2.00;1.57;;;21.90;99.90;;;;;;5058466;28;21034;-74
2022/10/16 09:36:25;;;;;;;3.27;1.57;;;21.90;99.90;;;;;;5055126;28;20930;-74
2022/10/16 09:39:04;;;;;;;4.20;1.33;;;21.80;99.90;;;;;;5054234;28;20536;-73
2022/10/16 09:41:29;;;;;;;2.40;1.67;;;21.70;99.90;;;;;;5054895;28;20760;-74
2022/10/16 09:43:57;;;;;;;1.50;1.40;;;21.60;99.90;;;;;;5054541;28;20397;-75
2022/10/16 09:46:37;;;;;;;1.40;1.30;;;21.50;99.90;;;;;;5055292;28;20217;-75
2022/10/16 09:49:24;;;;;;;1.93;1.47;;;21.60;99.90;;;;;;5055073;28;20413;-74
2022/10/16 09:51:51;;;;;;;1.80;1.10;;;21.70;99.90;;;;;;5055001;28;20472;-75
2022/10/16 09:54:19;;;;;;;2.87;1.40;;;21.60;99.90;;;;;;5054069;28;20403;-74
2022/10/16 09:56:48;;;;;;;6.60;2.17;;;21.80;99.90;;;;;;5054107;28;20435;-74
2022/10/16 09:59:19;;;;;;;1.80;1.40;;;22.00;99.90;;;;;;5054493;28;20453;-75
2022/10/16 10:01:48;;;;;;;3.67;1.87;;;22.20;99.90;;;;;;5036168;28;20459;-74
2022/10/16 10:04:14;;;;;;;2.17;1.67;;;22.30;99.90;;;;;;5053999;28;20401;-74
2022/10/16 10:06:44;;;;;;;2.73;1.30;;;22.30;99.90;;;;;;5059161;28;20456;-74
2022/10/16 10:09:23;;;;;;;2.87;1.27;;;22.60;99.90;;;;;;5073455;28;20396;-75
2022/10/16 10:11:54;;;;;;;1.87;1.40;;;22.80;99.90;;;;;;5074229;28;20428;-74
2022/10/16 10:14:27;;;;;;;4.70;1.33;;;23.00;99.90;;;;;;5074301;28;20408;-74
2022/10/16 10:17:04;;;;;;;2.47;1.40;;;23.10;99.90;;;;;;5073820;28;20423;-75
2022/10/16 10:19:37;;;;;;;4.13;1.77;;;23.30;99.90;;;;;;5073951;28;20428;-74
2022/10/16 10:22:17;;;;;;;1.40;1.30;;;23.20;99.90;;;;;;5073467;28;20385;-74
2022/10/16 10:25:04;;;;;;;2.10;1.57;;;23.50;99.90;;;;;;5074123;28;20393;-74
2022/10/16 10:28:05;;;;;;;1.30;1.07;;;23.60;99.90;;;;;;5045061;28;20444;-74
2022/10/16 10:30:54;;;;;;;3.23;2.40;;;23.90;99.90;;;;;;5073785;28;20783;-75
2022/10/16 10:33:49;;;;;;;2.47;1.30;;;24.00;99.90;;;;;;5073799;28;20484;-74
2022/10/16 10:36:21;;;;;;;1.60;1.40;;;24.20;99.90;;;;;;5073034;28;20777;-75
2022/10/16 10:38:52;;;;;;;2.57;1.70;;;24.20;99.90;;;;;;5073051;28;20474;-74
2022/10/16 10:41:30;;;;;;;2.37;1.67;;;24.70;99.90;;;;;;5073805;28;20385;-76
2022/10/16 10:44:27;;;;;;;3.00;1.70;;;25.50;99.90;;;;;;5073993;28;20400;-74
2022/10/16 10:46:57;;;;;;;3.23;1.30;;;25.60;99.90;;;;;;5073178;28;20440;-75
2022/10/16 10:49:31;;;;;;;2.10;1.50;;;25.90;99.90;;;;;;5073312;28;20495;-75
2022/10/16 10:52:15;;;;;;;1.90;1.20;;;25.90;99.90;;;;;;5072916;28;20392;-75
2022/10/16 10:54:53;;;;;;;1.60;1.40;;;26.10;99.90;;;;;;5073412;28;20392;-74
2022/10/16 10:57:32;;;;;;;4.43;1.57;;;27.70;99.90;;;;;;5073193;28;20499;-75
2022/10/16 11:00:26;;;;;;;4.20;1.30;;;30.40;97.00;;;;;;5073150;28;20427;-73
2022/10/16 11:03:26;;;;;;;2.47;1.37;;;31.30;94.50;;;;;;5073448;28;20479;-75
2022/10/16 11:05:58;;;;;;;3.07;1.50;;;31.80;93.00;;;;;;5073212;28;20412;-75
2022/10/16 11:08:42;;;;;;;2.43;1.60;;;31.80;91.10;;;;;;5053417;28;20417;-75
2022/10/16 11:11:15;;;;;;;1.40;1.30;;;32.20;90.00;;;;;;5053306;28;20390;-75
2022/10/16 11:14:04;;;;;;;1.57;1.37;;;32.60;90.20;;;;;;5053349;28;20385;-74
2022/10/16 11:16:42;;;;;;;4.03;1.40;;;33.40;86.30;;;;;;5053001;28;20769;-75
2022/10/16 11:19:31;;;;;;;2.03;1.27;;;33.70;81.90;;;;;;5053992;28;20518;-74
2022/10/16 11:22:04;;;;;;;3.03;1.23;;;33.40;80.10;;;;;;5053269;28;20392;-75
2022/10/16 11:25:13;;;;;;;2.50;1.53;;;32.50;84.30;;;;;;5053219;28;20389;-74
2022/10/16 11:27:49;;;;;;;7.63;4.63;;;31.40;88.60;;;;;;5053513;28;20406;-75
2022/10/16 11:30:22;;;;;;;2.73;1.40;;;30.20;91.40;;;;;;5053489;28;20407;-75
2022/10/16 11:33:00;;;;;;;2.67;2.10;;;31.40;88.40;;;;;;5053108;28;20967;-74
2022/10/16 11:35:50;;;;;;;5.00;1.70;;;32.70;86.00;;;;;;5035154;28;21018;-75
2022/10/16 11:38:40;;;;;;;1.97;1.77;;;33.20;82.30;;;;;;5052861;28;20552;-75
2022/10/16 11:41:42;;;;;;;2.40;1.40;;;31.60;86.20;;;;;;5054096;28;20394;-77
2022/10/16 11:44:35;;;;;;;1.50;1.40;;;31.20;87.90;;;;;;5053240;28;20421;-76
2022/10/16 11:47:19;;;;;;;3.97;1.80;;;31.30;86.10;;;;;;5064818;28;20444;-77
2022/10/16 11:49:47;;;;;;;2.63;1.80;;;32.60;85.30;;;;;;5076412;28;20913;-76
2022/10/16 11:52:39;;;;;;;1.37;1.17;;;34.20;81.30;;;;;;5077471;28;20914;-75
2022/10/16 11:55:17;;;;;;;2.00;1.57;;;35.80;76.50;;;;;;5077095;28;20395;-75
2022/10/16 11:57:57;;;;;;;3.57;1.27;;;36.10;72.20;;;;;;5077200;28;20450;-75
2022/10/16 12:00:38;;;;;;;3.13;1.80;;;34.90;72.60;;;;;;5077522;28;20392;-75
2022/10/16 12:03:15;;;;;;;4.67;1.97;;;34.30;76.30;;;;;;5077333;28;20377;-77
2022/10/16 12:06:29;;;;;;;3.77;1.20;;;33.20;76.90;;;;;;5068944;28;20464;-75
2022/10/16 12:08:57;;;;;;;2.50;1.87;;;33.80;74.40;;;;;;4985768;28;20424;-75
2022/10/16 12:11:26;;;;;;;3.47;1.33;;;34.30;74.20;;;;;;5067330;28;20753;-76
2022/10/16 12:14:03;;;;;;;2.60;1.30;;;35.60;69.10;;;;;;5077087;28;20410;-76
2022/10/16 12:16:29;;;;;;;1.80;0.90;;;35.10;69.70;;;;;;5076543;28;20451;-76
2022/10/16 12:19:12;;;;;;;1.63;1.53;;;35.70;68.60;;;;;;5059213;28;20620;-75
2022/10/16 12:21:38;;;;;;;2.07;1.87;;;35.60;68.60;;;;;;5074892;28;20166;-74
2022/10/16 12:24:05;;;;;;;2.33;1.33;;;34.10;71.60;;;;;;5062045;28;20427;-76
2022/10/16 12:26:34;;;;;;;3.07;1.30;;;33.60;68.80;;;;;;5056697;28;20186;-77
2022/10/16 12:29:37;;;;;;;2.80;1.20;;;34.30;68.20;;;;;;5057766;28;20773;-77
2022/10/16 12:32:05;;;;;;;1.57;1.33;;;34.50;67.50;;;;;;5038354;28;20943;-75
2022/10/16 12:34:36;;;;;;;1.30;1.20;;;34.10;69.10;;;;;;5056783;28;20401;-75
2022/10/16 12:37:19;;;;;;;1.70;1.60;;;33.10;70.40;;;;;;5056162;28;20413;-75
2022/10/16 12:39:45;;;;;;;3.83;1.57;;;33.00;69.90;;;;;;5056235;28;20799;-75
2022/10/16 12:42:19;;;;;;;2.00;1.53;;;33.60;68.80;;;;;;5056285;28;20745;-75
2022/10/16 12:44:45;;;;;;;1.63;1.20;;;34.30;66.50;;;;;;5056946;28;20465;-74
2022/10/16 12:47:22;;;;;;;1.70;1.30;;;33.20;68.90;;;;;;5056886;28;20887;-74
2022/10/16 12:49:53;;;;;;;2.23;1.40;;;33.80;68.90;;;;;;5057105;28;20174;-74
2022/10/16 12:52:36;;;;;;;1.87;1.50;;;33.60;69.60;;;;;;5056727;28;20398;-74
2022/10/16 12:55:03;;;;;;;4.27;1.53;;;33.30;69.40;;;;;;5056907;28;20737;-74
2022/10/16 12:58:08;;;;;;;2.43;1.30;;;32.60;72.10;;;;;;5058132;28;20908;-74
2022/10/16 13:00:43;;;;;;;1.50;1.30;;;32.10;73.20;;;;;;5066451;28;20507;-74
2022/10/16 13:03:23;;;;;;;2.93;2.70;;;30.90;75.20;;;;;;5078584;28;20746;-74
2022/10/16 13:06:08;;;;;;;1.70;1.10;;;30.30;78.90;;;;;;5079000;28;20423;-75
2022/10/16 13:08:58;;;;;;;5.73;1.50;;;29.10;81.00;;;;;;5060594;28;20405;-75